createdAt,value
2022-12-23T00:00:29.320Z,97866.38
2022-12-23T00:02:56.278Z,97871.78
2022-12-23T00:05:23.196Z,97854.22
2022-12-23T00:07:49.938Z,97868.53
2022-12-23T00:10:16.991Z,97866.88
2022-12-23T00:13:01.917Z,97862.03
2022-12-23T00:15:28.437Z,97861.19
2022-12-23T00:17:54.884Z,97871.16
2022-12-23T00:20:21.417Z,97859.25
2022-12-23T00:23:05.783Z,97868.94
2022-12-23T00:25:43.846Z,97866.78
2022-12-23T00:28:14.727Z,97888.13
2022-12-23T00:30:53.132Z,97873.28
2022-12-23T00:33:25.836Z,97881.91
2022-12-23T00:35:52.876Z,97869.22
2022-12-23T00:38:40.544Z,97875.94
2022-12-23T00:41:30.315Z,97865.13
2022-12-23T00:43:57.252Z,97866.25
2022-12-23T00:46:23.885Z,97859.47
2022-12-23T00:49:09.009Z,97865.69
2022-12-23T00:51:35.741Z,97864.81
2022-12-23T00:54:02.985Z,97867.28
2022-12-23T00:56:29.504Z,97865.09
2022-12-23T00:58:56.051Z,97870.22
2022-12-23T01:01:41.513Z,97880.50
2022-12-23T01:04:30.164Z,97878.63
2022-12-23T01:06:56.751Z,97887.81
2022-12-23T01:09:23.268Z,97881.63
2022-12-23T01:11:49.889Z,97885.06
2022-12-23T01:14:17.605Z,97884.00
2022-12-23T01:16:44.383Z,97885.63
2022-12-23T01:19:11.878Z,97885.69
2022-12-23T01:21:38.423Z,97888.38
2022-12-23T01:24:05.368Z,97899.19
2022-12-23T01:26:31.885Z,97894.91
2022-12-23T01:28:59.039Z,97910.03
2022-12-23T01:31:27.146Z,97911.63
2022-12-23T01:33:54.261Z,97931.09
2022-12-23T01:36:22.181Z,97935.94
2022-12-23T01:38:48.985Z,97940.78
2022-12-23T01:41:40.062Z,97939.44
2022-12-23T01:45:01.543Z,97937.53
2022-12-23T01:47:58.501Z,97930.41
2022-12-23T01:50:35.077Z,97945.81
2022-12-23T01:53:13.420Z,97938.81
2022-12-23T01:55:54.447Z,97939.06
2022-12-23T01:58:30.236Z,97947.16
2022-12-23T02:01:16.853Z,97953.34
2022-12-23T02:03:45.243Z,97961.19
2022-12-23T02:06:38.411Z,97965.25
2022-12-23T02:09:24.406Z,97969.00
2022-12-23T02:12:09.352Z,97969.84
2022-12-23T02:15:32.410Z,97962.56
2022-12-23T02:18:16.800Z,97972.81
2022-12-23T02:21:05.864Z,97976.59
2022-12-23T02:23:58.503Z,97959.59
2022-12-23T02:27:01.514Z,97962.81
2022-12-23T02:29:58.476Z,97953.97
2022-12-23T02:32:35.823Z,97963.72
2022-12-23T02:35:21.025Z,97964.56
2022-12-23T02:38:02.776Z,97962.97
2022-12-23T02:40:34.920Z,97961.66
2022-12-23T02:43:11.589Z,97966.22
2022-12-23T02:45:55.516Z,97970.25
2022-12-23T02:48:31.708Z,97968.66
2022-12-23T02:51:00.259Z,97973.78
2022-12-23T02:53:35.572Z,97971.09
2022-12-23T02:56:05.668Z,97977.56
2022-12-23T02:58:37.383Z,97980.25
2022-12-23T03:01:06.708Z,97985.09
2022-12-23T03:03:35.477Z,97984.31
2022-12-23T03:06:06.684Z,97986.19
2022-12-23T03:08:43.140Z,97981.31
2022-12-23T03:11:15.600Z,97987.25
2022-12-23T03:14:12.988Z,97992.41
2022-12-23T03:16:49.865Z,97979.69
2022-12-23T03:19:54.387Z,97981.06
2022-12-23T03:22:40.721Z,97979.69
2022-12-23T03:25:17.595Z,97980.25
2022-12-23T03:28:01.726Z,97981.31
2022-12-23T03:30:29.853Z,97979.19
2022-12-23T03:33:06.774Z,97974.31
2022-12-23T03:35:45.433Z,97979.72
2022-12-23T03:38:15.599Z,97973.22
2022-12-23T03:40:46.870Z,97972.44
2022-12-23T03:43:25.906Z,97972.19
2022-12-23T03:46:01.039Z,97979.72
2022-12-23T03:48:34.662Z,97977.56
2022-12-23T03:51:14.948Z,97958.94
2022-12-23T03:53:51.321Z,97966.78
2022-12-23T03:56:28.322Z,97964.59
2022-12-23T03:59:01.303Z,97979.44
2022-12-23T04:01:46.459Z,97974.03
2022-12-23T04:04:27.685Z,97975.94
2022-12-23T04:07:18.949Z,97980.25
2022-12-23T04:09:46.146Z,97978.38
2022-12-23T04:12:14.962Z,97981.31
2022-12-23T04:14:48.371Z,97970.53
2022-12-23T04:17:16.413Z,97969.47
2022-12-23T04:19:47.500Z,97973.75
2022-12-23T04:22:15.648Z,97976.22
2022-12-23T04:24:42.804Z,97977.31
2022-12-23T04:27:13.171Z,97979.72
2022-12-23T04:29:39.782Z,97983.25
2022-12-23T04:32:07.815Z,97991.88
2022-12-23T04:34:34.345Z,97985.69
2022-12-23T04:37:00.896Z,97987.28
2022-12-23T04:39:27.385Z,97988.88
2022-12-23T04:41:53.892Z,97995.09
2022-12-23T04:44:20.443Z,97991.59
2022-12-23T04:46:47.014Z,97990.78
2022-12-23T04:49:13.538Z,97998.06
2022-12-23T04:51:40.046Z,97991.59
2022-12-23T04:54:06.513Z,97985.38
2022-12-23T04:56:33.024Z,97981.34
2022-12-23T04:59:02.260Z,97986.75
2022-12-23T05:01:29.223Z,97991.59
2022-12-23T05:03:55.917Z,97996.72
2022-12-23T05:06:22.445Z,97990.78
2022-12-23T05:08:48.967Z,98002.13
2022-12-23T05:11:15.434Z,97998.06
2022-12-23T05:13:41.870Z,98001.84
2022-12-23T05:16:08.439Z,98000.50
2022-12-23T05:18:35.211Z,97998.06
2022-12-23T05:21:01.691Z,98001.28
2022-12-23T05:23:28.474Z,98004.00
2022-12-23T05:25:55.010Z,97999.16
2022-12-23T05:28:22.730Z,97999.94
2022-12-23T05:30:49.417Z,97998.06
2022-12-23T05:33:15.947Z,97996.97
2022-12-23T05:35:42.501Z,98000.75
2022-12-23T05:38:09.013Z,97998.84
2022-12-23T05:40:35.605Z,97991.03
2022-12-23T05:43:02.340Z,97998.31
2022-12-23T05:45:28.964Z,97998.31
2022-12-23T05:47:55.562Z,98004.50
2022-12-23T05:50:22.108Z,98012.09
2022-12-23T05:52:48.593Z,98015.63
2022-12-23T05:55:15.112Z,98017.22
2022-12-23T05:57:41.584Z,98014.22
2022-12-23T06:00:08.948Z,98004.25
2022-12-23T06:02:35.699Z,98002.63
2022-12-23T06:05:02.451Z,98011.00
2022-12-23T06:07:28.960Z,98004.53
2022-12-23T06:09:55.479Z,98004.00
2022-12-23T06:12:21.984Z,98006.69
2022-12-23T06:14:48.491Z,98005.59
2022-12-23T06:17:15.054Z,97997.25
2022-12-23T06:19:41.538Z,98000.75
2022-12-23T06:22:08.084Z,98011.53
2022-12-23T06:24:34.687Z,98003.44
2022-12-23T06:27:01.272Z,98010.44
2022-12-23T06:29:27.769Z,98003.44
2022-12-23T06:31:54.291Z,97999.66
2022-12-23T06:34:20.803Z,98002.38
2022-12-23T06:36:47.246Z,98003.19
2022-12-23T06:39:14.227Z,97996.69
2022-12-23T06:41:40.822Z,98001.31
2022-12-23T06:44:07.693Z,97996.44
2022-12-23T06:46:34.240Z,97989.97
2022-12-23T06:49:00.684Z,97994.81
2022-12-23T06:51:27.250Z,97992.13
2022-12-23T06:53:53.880Z,97986.97
2022-12-23T06:56:20.620Z,97983.75
2022-12-23T06:58:47.195Z,97982.94
2022-12-23T07:01:13.705Z,97980.78
2022-12-23T07:03:40.423Z,97982.94
2022-12-23T07:06:07.309Z,97987.53
2022-12-23T07:08:33.953Z,98011.53
2022-12-23T07:11:01.781Z,98009.91
2022-12-23T07:13:28.291Z,98002.88
2022-12-23T07:15:55.115Z,98005.34
2022-12-23T07:18:22.989Z,98017.72
2022-12-23T07:20:50.380Z,98021.50
2022-12-23T07:23:17.013Z,98018.00
2022-12-23T07:25:43.501Z,98019.88
2022-12-23T07:28:10.044Z,98029.84
2022-12-23T07:30:36.800Z,98029.84
2022-12-23T07:33:03.280Z,98034.16
2022-12-23T07:35:29.914Z,98033.88
2022-12-23T07:37:56.710Z,98027.16
2022-12-23T07:40:23.985Z,98036.84
2022-12-23T07:42:54.330Z,98036.84
2022-12-23T07:45:20.832Z,98037.91
2022-12-23T07:47:47.520Z,98037.09
2022-12-23T07:50:13.993Z,98023.91
2022-12-23T07:52:40.472Z,98029.00
2022-12-23T07:55:07.305Z,98040.91
2022-12-23T07:57:37.810Z,98035.78
2022-12-23T08:00:09.920Z,98033.34
2022-12-23T08:02:36.634Z,98035.19
2022-12-23T08:05:03.309Z,98028.78
2022-12-23T08:07:29.889Z,98030.94
2022-12-23T08:09:56.342Z,98033.88
2022-12-23T08:12:22.839Z,98034.16
2022-12-23T08:14:50.414Z,98036.06
2022-12-23T08:17:16.940Z,98035.25
2022-12-23T08:19:43.419Z,98029.03
2022-12-23T08:22:09.852Z,98032.28
2022-12-23T08:24:36.336Z,98040.38
2022-12-23T08:27:02.787Z,98041.72
2022-12-23T08:29:35.792Z,98030.13
2022-12-23T08:32:03.225Z,98033.09
2022-12-23T08:34:29.787Z,98031.50
2022-12-23T08:36:56.311Z,98036.34
2022-12-23T08:39:22.905Z,98037.94
2022-12-23T08:41:49.731Z,98039.56
2022-12-23T08:44:16.877Z,98036.06
2022-12-23T08:46:44.640Z,98038.50
2022-12-23T08:49:11.565Z,98035.00
2022-12-23T08:51:38.733Z,98032.56
2022-12-23T08:54:06.128Z,98037.94
2022-12-23T08:56:36.320Z,98040.66
2022-12-23T08:59:03.602Z,98039.59
2022-12-23T09:01:33.214Z,98042.53
2022-12-23T09:04:04.174Z,98046.31
2022-12-23T09:06:35.389Z,98049.81
2022-12-23T09:09:02.014Z,98045.50
2022-12-23T09:11:29.779Z,98053.31
2022-12-23T09:13:59.043Z,98059.50
2022-12-23T09:16:25.842Z,98052.50
2022-12-23T09:18:52.420Z,98049.81
2022-12-23T09:21:21.953Z,98046.88
2022-12-23T09:23:48.935Z,98047.94
2022-12-23T09:26:19.953Z,98044.44
2022-12-23T09:28:46.459Z,98042.53
2022-12-23T09:31:14.277Z,98049.56
2022-12-23T09:33:42.746Z,98040.66
2022-12-23T09:36:09.834Z,98043.34
2022-12-23T09:38:38.047Z,98042.28
2022-12-23T09:41:34.010Z,98038.50
2022-12-23T09:44:17.896Z,98033.66
2022-12-23T09:46:57.220Z,98030.97
2022-12-23T09:49:24.641Z,98028.25
2022-12-23T09:51:56.035Z,98033.09
2022-12-23T09:54:25.410Z,98032.84
2022-12-23T09:57:03.930Z,98028.53
2022-12-23T10:00:07.349Z,98023.41
2022-12-23T10:03:01.363Z,98032.03
2022-12-23T10:05:51.563Z,98023.94
2022-12-23T10:08:35.241Z,98015.31
2022-12-23T10:11:11.109Z,98016.97
2022-12-23T10:13:48.645Z,98012.63
2022-12-23T10:16:20.382Z,98015.88
2022-12-23T10:19:08.498Z,98009.38
2022-12-23T10:21:47.631Z,98006.16
2022-12-23T10:24:28.064Z,98008.88
2022-12-23T10:26:57.786Z,98002.66
2022-12-23T10:29:27.047Z,97999.69
2022-12-23T10:32:18.777Z,97997.78
2022-12-23T10:34:56.758Z,97995.63
2022-12-23T10:38:03.387Z,97999.69
2022-12-23T10:40:40.832Z,97998.34
2022-12-23T10:43:19.649Z,97987.25
2022-12-23T10:45:58.380Z,97978.66
2022-12-23T10:48:37.639Z,97968.91
2022-12-23T10:51:28.624Z,97985.09
2022-12-23T10:54:11.517Z,97972.41
2022-12-23T10:56:38.840Z,97979.72
2022-12-23T10:59:07.289Z,97973.22
2022-12-23T11:01:34.495Z,97968.91
2022-12-23T11:04:13.291Z,97967.81
2022-12-23T11:06:43.764Z,97969.97
2022-12-23T11:09:37.853Z,97965.88
2022-12-23T11:12:09.706Z,97965.63
2022-12-23T11:14:42.527Z,97958.88
2022-12-23T11:17:30.444Z,97967.72
2022-12-23T11:20:16.197Z,97969.34
2022-12-23T11:22:58.367Z,97960.19
2022-12-23T11:25:24.848Z,97960.97
2022-12-23T11:27:56.200Z,97965.59
2022-12-23T11:30:22.759Z,97963.13
2022-12-23T11:32:50.641Z,97968.78
2022-12-23T11:35:37.513Z,97957.66
2022-12-23T11:38:04.364Z,97949.78
2022-12-23T11:40:35.641Z,97950.66
2022-12-23T11:43:06.024Z,97950.41
2022-12-23T11:45:37.329Z,97953.97
2022-12-23T11:48:05.600Z,97942.91
2022-12-23T11:50:36.580Z,97938.88
2022-12-23T11:53:09.200Z,97931.09
2022-12-23T11:55:35.909Z,97930.53
2022-12-23T11:58:03.147Z,97924.84
2022-12-23T12:00:41.167Z,97915.41
2022-12-23T12:03:17.116Z,97917.59
2022-12-23T12:05:49.860Z,97907.34
2022-12-23T12:08:22.338Z,97918.66
2022-12-23T12:10:52.610Z,97914.34
2022-12-23T12:13:29.782Z,97912.44
2022-12-23T12:16:14.376Z,97917.84
2022-12-23T12:18:44.286Z,97914.59
2022-12-23T12:21:15.990Z,97912.69
2022-12-23T12:24:14.708Z,97915.94
2022-12-23T12:26:41.164Z,97898.69
2022-12-23T12:29:30.817Z,97903.25
2022-12-23T12:31:59.963Z,97886.78
2022-12-23T12:34:41.459Z,97900.31
2022-12-23T12:37:26.244Z,97901.09
2022-12-23T12:40:08.937Z,97890.88
2022-12-23T12:42:35.597Z,97892.22
2022-12-23T12:45:20.712Z,97891.41
2022-12-23T12:48:24.426Z,97880.91
2022-12-23T12:51:22.988Z,97877.66
2022-12-23T12:54:18.416Z,97873.56
2022-12-23T12:56:52.637Z,97876.50
2022-12-23T12:59:25.715Z,97874.34
2022-12-23T13:02:10.137Z,97882.44
2022-12-23T13:04:57.865Z,97880.03
2022-12-23T13:07:49.463Z,97873.78
2022-12-23T13:10:38.805Z,97883.53
2022-12-23T13:13:43.775Z,97891.63
2022-12-23T13:16:34.846Z,97885.97
2022-12-23T13:19:14.420Z,97880.84
2022-12-23T13:21:50.364Z,97882.44
2022-12-23T13:24:27.668Z,97877.34
2022-12-23T13:27:00.646Z,97879.78
2022-12-23T13:30:04.328Z,97883.84
2022-12-23T13:32:41.673Z,97884.66
2022-12-23T13:35:18.835Z,97873.84
2022-12-23T13:37:59.117Z,97863.28
2022-12-23T13:40:41.670Z,97859.78
2022-12-23T13:43:23.009Z,97851.13
2022-12-23T13:45:52.471Z,97846.84
2022-12-23T13:48:44.648Z,97850.59
2022-12-23T13:51:18.973Z,97837.66
2022-12-23T13:54:17.049Z,97848.19
2022-12-23T13:56:47.103Z,97860.34
2022-12-23T13:59:15.866Z,97850.38
2022-12-23T14:01:42.446Z,97857.13
2022-12-23T14:04:35.778Z,97850.38
2022-12-23T14:07:19.015Z,97842.56
2022-12-23T14:09:51.911Z,97845.53
2022-12-23T14:12:22.416Z,97850.91
2022-12-23T14:15:16.720Z,97864.09
2022-12-23T14:17:50.354Z,97876.81
2022-12-23T14:20:33.451Z,97872.50
2022-12-23T14:23:21.646Z,97894.59
2022-12-23T14:26:00.252Z,97880.03
2022-12-23T14:28:55.327Z,97884.88
2022-12-23T14:31:36.005Z,97890.53
2022-12-23T14:34:17.570Z,97892.97
2022-12-23T14:37:15.167Z,97893.78
2022-12-23T14:39:41.812Z,97898.38
2022-12-23T14:42:16.440Z,97901.34
2022-12-23T14:44:46.357Z,97895.69
2022-12-23T14:47:35.217Z,97894.06
2022-12-23T14:50:34.381Z,97887.34
2022-12-23T14:53:03.510Z,97903.78
2022-12-23T14:55:31.616Z,97914.59
2022-12-23T14:58:10.601Z,97917.59
2022-12-23T15:00:47.207Z,97927.28
2022-12-23T15:03:14.444Z,97926.25
2022-12-23T15:05:41.074Z,97915.44
2022-12-23T15:08:27.175Z,97929.50
2022-12-23T15:10:53.994Z,97916.00
2022-12-23T15:13:20.660Z,97919.75
2022-12-23T15:16:00.986Z,97912.75
2022-12-23T15:18:28.898Z,97920.31
2022-12-23T15:21:03.407Z,97918.16
2022-12-23T15:23:30.516Z,97913.56
2022-12-23T15:26:00.330Z,97915.75
2022-12-23T15:28:37.263Z,97924.91
2022-12-23T15:31:05.414Z,97926.25
2022-12-23T15:34:02.767Z,97939.75
2022-12-23T15:36:35.715Z,97927.28
2022-12-23T15:39:08.607Z,97928.09
2022-12-23T15:41:43.568Z,97915.69
2022-12-23T15:44:14.334Z,97909.97
2022-12-23T15:46:40.948Z,97922.94
2022-12-23T15:49:11.300Z,97934.81
2022-12-23T15:52:06.440Z,97926.19
2022-12-23T15:54:39.870Z,97919.69
2022-12-23T15:57:06.523Z,97932.09
2022-12-23T15:59:39.843Z,97940.19
2022-12-23T16:05:29.926Z,97939.91
2022-12-23T16:08:16.107Z,97940.41
2022-12-23T16:10:55.285Z,97929.59
2022-12-23T16:13:21.764Z,97935.81
2022-12-23T16:15:48.405Z,97941.22
2022-12-23T16:18:23.415Z,97942.56
2022-12-23T16:20:53.914Z,97941.75
2022-12-23T16:23:21.486Z,97936.59
2022-12-23T16:25:51.129Z,97952.53
2022-12-23T16:28:23.996Z,97935.78
